createdAt,value
2018-12-02T00:00:34.463Z,8.48
2018-12-02T00:03:03.984Z,8.51
2018-12-02T00:05:32.442Z,8.53
2018-12-02T00:08:01.128Z,8.49
2018-12-02T00:10:29.573Z,8.53
2018-12-02T00:12:59.585Z,8.55
2018-12-02T00:15:29.803Z,8.56
2018-12-02T00:17:59.307Z,8.56
2018-12-02T00:20:27.779Z,8.56
2018-12-02T00:22:56.246Z,8.57
2018-12-02T00:25:24.785Z,8.58
2018-12-02T00:27:55.674Z,8.61
2018-12-02T00:30:28.101Z,8.60
2018-12-02T00:32:56.522Z,8.61
2018-12-02T00:35:24.998Z,8.62
2018-12-02T00:37:57.723Z,8.63
2018-12-02T00:40:26.142Z,8.65
2018-12-02T00:42:57.596Z,8.64
2018-12-02T00:45:31.382Z,8.63
2018-12-02T00:48:00.304Z,8.63
2018-12-02T00:50:28.731Z,8.64
2018-12-02T00:52:58.329Z,8.64
2018-12-02T00:55:36.193Z,8.62
2018-12-02T00:58:04.814Z,8.65
2018-12-02T01:00:33.191Z,8.65
2018-12-02T01:03:01.963Z,8.65
2018-12-02T01:05:30.381Z,8.65
2018-12-02T01:07:58.756Z,8.64
2018-12-02T01:10:27.238Z,8.64
2018-12-02T01:13:00.515Z,8.65
2018-12-02T01:15:30.360Z,8.68
2018-12-02T01:17:58.773Z,8.68
2018-12-02T01:20:27.186Z,8.67
2018-12-02T01:22:55.594Z,8.71
2018-12-02T01:25:24.014Z,8.74
2018-12-02T01:27:52.428Z,8.74
2018-12-02T01:30:22.074Z,8.78
2018-12-02T01:32:52.246Z,8.76
2018-12-02T01:35:20.643Z,8.77
2018-12-02T01:37:49.212Z,8.77
2018-12-02T01:40:20.034Z,8.80
2018-12-02T01:42:49.931Z,8.80
2018-12-02T01:45:21.421Z,8.80
2018-12-02T01:47:50.677Z,8.76
2018-12-02T01:50:21.038Z,8.74
2018-12-02T01:52:53.430Z,8.73
2018-12-02T01:55:21.851Z,8.72
2018-12-02T01:57:51.652Z,8.66
2018-12-02T02:00:21.059Z,8.64
2018-12-02T02:02:49.792Z,8.58
2018-12-02T02:05:19.173Z,8.56
2018-12-02T02:07:47.714Z,8.52
2018-12-02T02:10:22.183Z,8.50
2018-12-02T02:12:51.227Z,8.47
2018-12-02T02:15:19.714Z,8.44
2018-12-02T02:17:48.264Z,8.40
2018-12-02T02:20:20.424Z,8.39
2018-12-02T02:22:50.504Z,8.36
2018-12-02T02:25:19.910Z,8.34
2018-12-02T02:27:51.665Z,8.32
2018-12-02T02:30:21.173Z,8.31
2018-12-02T02:32:50.258Z,8.31
2018-12-02T02:35:23.358Z,8.29
2018-12-02T02:37:54.586Z,8.28
2018-12-02T02:40:27.817Z,8.27
2018-12-02T02:42:56.267Z,8.28
2018-12-02T02:45:25.583Z,8.27
2018-12-02T02:47:54.485Z,8.28
2018-12-02T02:50:23.933Z,8.29
2018-12-02T02:52:55.505Z,8.29
2018-12-02T02:55:23.944Z,8.28
2018-12-02T02:57:52.495Z,8.27
2018-12-02T03:00:21.825Z,8.27
2018-12-02T03:02:50.288Z,8.26
2018-12-02T03:05:18.873Z,8.26
2018-12-02T03:07:47.314Z,8.25
2018-12-02T03:10:17.593Z,8.25
2018-12-02T03:12:49.826Z,8.25
2018-12-02T03:15:19.852Z,8.25
2018-12-02T03:17:48.341Z,8.23
2018-12-02T03:20:19.691Z,8.24
2018-12-02T03:22:49.133Z,8.23
2018-12-02T03:25:18.800Z,8.23
2018-12-02T03:27:47.206Z,8.22
2018-12-02T03:30:17.462Z,8.23
2018-12-02T03:32:45.967Z,8.23
2018-12-02T03:35:16.363Z,8.22
2018-12-02T03:37:44.812Z,8.22
2018-12-02T03:40:21.103Z,8.22
2018-12-02T03:42:51.193Z,8.20
2018-12-02T03:45:20.756Z,8.20
2018-12-02T03:47:49.188Z,8.20
2018-12-02T03:50:18.616Z,8.21
2018-12-02T03:52:47.192Z,8.20
2018-12-02T03:55:15.717Z,8.20
2018-12-02T03:57:44.232Z,8.19
2018-12-02T04:00:15.970Z,8.18
2018-12-02T04:02:44.455Z,8.19
2018-12-02T04:05:13.982Z,8.19
2018-12-02T04:07:42.480Z,8.17
2018-12-02T04:10:12.223Z,8.18
2018-12-02T04:12:40.714Z,8.19
2018-12-02T04:15:13.974Z,8.19
2018-12-02T04:17:42.835Z,8.19
2018-12-02T04:20:12.299Z,8.20
2018-12-02T04:22:40.814Z,8.21
2018-12-02T04:25:10.600Z,8.20
2018-12-02T04:27:39.496Z,8.20
2018-12-02T04:30:11.407Z,8.21
2018-12-02T04:32:39.920Z,8.19
2018-12-02T04:35:09.771Z,8.20
2018-12-02T04:37:38.200Z,8.21
2018-12-02T04:40:09.907Z,8.21
2018-12-02T04:42:38.413Z,8.22
2018-12-02T04:45:11.695Z,8.21
2018-12-02T04:47:40.156Z,8.23
2018-12-02T04:50:13.015Z,8.23
2018-12-02T04:52:41.803Z,8.24
2018-12-02T04:55:10.729Z,8.05
2018-12-02T04:57:39.223Z,8.23
2018-12-02T05:00:13.615Z,8.24
2018-12-02T05:02:42.180Z,8.24
2018-12-02T05:05:15.720Z,8.25
2018-12-02T05:07:44.694Z,8.25
2018-12-02T05:10:16.988Z,8.25
2018-12-02T05:12:45.416Z,8.26
2018-12-02T05:15:15.010Z,8.25
2018-12-02T05:17:43.463Z,8.25
2018-12-02T05:20:13.887Z,8.26
2018-12-02T05:22:42.323Z,8.24
2018-12-02T05:25:17.307Z,8.25
2018-12-02T05:27:42.765Z,8.23
2018-12-02T05:30:17.329Z,8.24
2018-12-02T05:32:46.746Z,8.25
2018-12-02T05:35:15.651Z,8.26
2018-12-02T05:37:44.122Z,8.25
2018-12-02T05:40:19.589Z,8.25
2018-12-02T05:42:48.021Z,8.26
2018-12-02T05:45:17.419Z,8.26
2018-12-02T05:47:45.940Z,8.27
2018-12-02T05:50:18.354Z,8.28
2018-12-02T05:52:49.028Z,8.28
2018-12-02T05:55:19.104Z,8.28
2018-12-02T05:57:47.589Z,8.30
2018-12-02T06:00:19.479Z,8.29
2018-12-02T06:02:47.856Z,8.30
2018-12-02T06:05:16.342Z,8.30
2018-12-02T06:07:44.831Z,8.29
2018-12-02T06:10:18.177Z,8.31
2018-12-02T06:12:47.133Z,8.32
2018-12-02T06:15:16.463Z,8.32
2018-12-02T06:17:44.977Z,8.28
2018-12-02T06:20:15.601Z,8.32
2018-12-02T06:22:44.335Z,8.33
2018-12-02T06:25:12.825Z,8.33
2018-12-02T06:27:42.092Z,8.35
2018-12-02T06:30:15.879Z,8.34
2018-12-02T06:32:44.433Z,8.34
2018-12-02T06:35:14.026Z,8.34
2018-12-02T06:37:42.623Z,8.35
2018-12-02T06:40:13.585Z,8.34
2018-12-02T06:42:42.140Z,8.35
2018-12-02T06:45:11.587Z,8.36
2018-12-02T06:47:40.901Z,8.36
2018-12-02T06:50:12.269Z,8.39
2018-12-02T06:52:40.797Z,8.38
2018-12-02T06:55:21.011Z,8.39
2018-12-02T06:57:54.002Z,8.41
2018-12-02T07:01:04.952Z,8.41
2018-12-02T07:04:40.799Z,8.42
2018-12-02T07:07:09.213Z,8.45
2018-12-02T07:09:37.616Z,8.42
2018-12-02T07:12:06.307Z,8.46
2018-12-02T07:14:35.065Z,8.46
2018-12-02T07:17:05.319Z,8.47
2018-12-02T07:19:39.298Z,8.47
2018-12-02T07:22:15.082Z,8.48
2018-12-02T07:24:48.558Z,8.47
2018-12-02T07:27:18.753Z,8.48
2018-12-02T07:29:47.282Z,8.48
2018-12-02T07:32:16.555Z,8.48
2018-12-02T07:34:45.255Z,8.49
2018-12-02T07:37:17.073Z,8.48
2018-12-02T07:40:11.074Z,8.48
2018-12-02T07:42:39.907Z,8.51
2018-12-02T07:45:08.387Z,8.51
2018-12-02T07:47:36.823Z,8.51
2018-12-02T07:50:07.230Z,8.52
2018-12-02T07:52:35.716Z,8.53
2018-12-02T07:55:04.377Z,8.51
2018-12-02T07:57:32.840Z,8.52
2018-12-02T08:00:01.322Z,8.53
2018-12-02T08:02:30.481Z,8.54
2018-12-02T08:04:58.893Z,8.56
2018-12-02T08:07:27.336Z,8.57
2018-12-02T08:09:55.743Z,8.59
2018-12-02T08:12:24.185Z,8.57
2018-12-02T08:14:52.630Z,8.59
2018-12-02T08:17:21.071Z,8.61
2018-12-02T08:19:49.559Z,8.61
2018-12-02T08:22:18.097Z,8.64
2018-12-02T08:24:46.539Z,8.68
2018-12-02T08:27:14.995Z,8.67
2018-12-02T08:29:43.898Z,8.66
2018-12-02T08:32:12.343Z,8.69
2018-12-02T08:34:40.745Z,8.69
2018-12-02T08:37:09.970Z,8.70
2018-12-02T08:39:38.442Z,8.72
2018-12-02T08:42:07.974Z,8.72
2018-12-02T08:44:37.845Z,8.73
2018-12-02T08:47:06.411Z,8.77
2018-12-02T08:49:34.815Z,8.59
2018-12-02T08:52:03.216Z,8.82
2018-12-02T08:54:31.657Z,8.80
2018-12-02T08:57:00.090Z,8.79
2018-12-02T08:59:28.556Z,8.81
2018-12-02T09:01:57.118Z,8.83
2018-12-02T09:04:25.568Z,8.83
2018-12-02T09:06:54.195Z,8.85
2018-12-02T09:09:22.730Z,8.87
2018-12-02T09:11:51.180Z,8.87
2018-12-02T09:14:19.702Z,8.87
2018-12-02T09:16:48.207Z,8.90
2018-12-02T09:19:16.618Z,8.90
2018-12-02T09:21:45.088Z,8.93
2018-12-02T09:24:14.137Z,8.94
2018-12-02T09:26:42.587Z,8.91
2018-12-02T09:29:11.068Z,8.93
2018-12-02T09:31:39.893Z,8.93
2018-12-02T09:34:08.351Z,8.96
2018-12-02T09:36:36.783Z,8.97
2018-12-02T09:39:08.673Z,8.96
2018-12-02T09:41:38.103Z,8.99
2018-12-02T09:44:06.593Z,8.99
2018-12-02T09:46:35.035Z,8.99
2018-12-02T09:49:03.463Z,8.99
2018-12-02T09:51:31.904Z,8.99
2018-12-02T09:54:00.319Z,9.02
2018-12-02T09:56:29.379Z,9.03
2018-12-02T09:58:58.195Z,9.02
2018-12-02T10:01:26.785Z,9.01
2018-12-02T10:03:55.245Z,9.02
2018-12-02T10:06:23.686Z,9.05
2018-12-02T10:08:52.170Z,9.07
2018-12-02T10:11:20.673Z,9.10
2018-12-02T10:13:49.231Z,9.08
2018-12-02T10:16:17.758Z,9.12
2018-12-02T10:18:46.200Z,9.14
2018-12-02T10:21:14.606Z,9.15
2018-12-02T10:23:43.019Z,9.16
2018-12-02T10:26:11.474Z,9.20
2018-12-02T10:28:39.948Z,9.19
2018-12-02T10:31:09.010Z,9.19
2018-12-02T10:33:38.009Z,9.19
2018-12-02T10:36:06.530Z,9.22
2018-12-02T10:38:34.915Z,9.25
2018-12-02T10:41:03.375Z,9.27
2018-12-02T10:43:32.715Z,9.26
2018-12-02T10:46:01.162Z,9.27
2018-12-02T10:48:29.751Z,9.27
2018-12-02T10:50:58.164Z,9.33
2018-12-02T10:53:27.532Z,9.37
2018-12-02T10:55:58.349Z,9.38
2018-12-02T10:58:29.147Z,9.41
2018-12-02T11:01:03.870Z,9.46
2018-12-02T11:03:32.643Z,9.47
2018-12-02T11:06:01.223Z,9.49
2018-12-02T11:08:29.775Z,9.55
2018-12-02T11:10:58.803Z,9.61
2018-12-02T11:13:27.343Z,9.71
2018-12-02T11:15:55.820Z,9.77
2018-12-02T11:18:24.275Z,9.82
2018-12-02T11:20:52.739Z,9.97
2018-12-02T11:23:21.161Z,10.12
2018-12-02T11:25:49.760Z,10.33
2018-12-02T11:28:18.192Z,10.76
2018-12-02T11:30:46.796Z,10.97
2018-12-02T11:33:15.317Z,11.15
2018-12-02T11:35:43.819Z,11.15
2018-12-02T11:38:12.273Z,11.25
2018-12-02T11:40:41.573Z,11.33
2018-12-02T11:43:10.287Z,11.33
2018-12-02T11:45:38.866Z,11.40
2018-12-02T11:48:08.723Z,11.50
2018-12-02T11:50:37.862Z,11.53
2018-12-02T11:53:06.985Z,11.44
2018-12-02T11:55:35.974Z,11.47
2018-12-02T11:58:04.678Z,11.50
2018-12-02T12:00:34.470Z,11.55
2018-12-02T12:03:02.923Z,11.59
2018-12-02T12:05:31.346Z,11.60
2018-12-02T12:07:59.831Z,11.55
2018-12-02T12:10:29.011Z,11.62
2018-12-02T12:12:58.614Z,11.63
2018-12-02T12:15:28.127Z,11.68
2018-12-02T12:17:57.218Z,11.73
2018-12-02T12:20:28.572Z,11.81
2018-12-02T12:22:57.170Z,11.83
2018-12-02T12:25:26.427Z,11.86
2018-12-02T12:27:56.186Z,11.86
2018-12-02T12:30:25.998Z,11.90
2018-12-02T12:32:54.770Z,11.85
2018-12-02T12:35:29.670Z,11.85
2018-12-02T12:37:59.386Z,11.92
2018-12-02T12:40:37.131Z,11.93
2018-12-02T12:43:38.804Z,11.89
2018-12-02T12:46:08.404Z,11.86
2018-12-02T12:48:38.184Z,11.93
2018-12-02T12:53:53.798Z,12.02
2018-12-02T12:56:24.727Z,12.09
2018-12-02T12:58:54.595Z,12.07
2018-12-02T13:01:25.635Z,12.08
2018-12-02T13:03:54.119Z,12.06
2018-12-02T13:06:23.624Z,12.14
2018-12-02T13:08:52.623Z,12.17
2018-12-02T13:11:22.198Z,12.21
2018-12-02T13:13:50.647Z,12.20
2018-12-02T13:16:19.127Z,12.21
2018-12-02T13:18:47.632Z,12.18
2018-12-02T13:21:16.116Z,12.29
2018-12-02T13:23:45.565Z,12.28
2018-12-02T13:26:14.116Z,12.25
2018-12-02T13:28:43.694Z,12.25
2018-12-02T13:31:12.142Z,12.25
2018-12-02T13:33:40.644Z,12.29
2018-12-02T13:36:09.099Z,12.24
2018-12-02T13:38:38.540Z,12.31
2018-12-02T13:41:06.991Z,12.33
2018-12-02T13:43:35.454Z,12.21
2018-12-02T13:46:05.161Z,12.17
2018-12-02T13:48:33.648Z,12.18
2018-12-02T13:51:02.467Z,11.85
2018-12-02T13:53:36.114Z,12.22
2018-12-02T13:56:04.612Z,12.30
2018-12-02T13:58:33.656Z,12.31
2018-12-02T14:01:02.179Z,12.29
2018-12-02T14:03:30.648Z,12.31
2018-12-02T14:05:59.142Z,12.38
2018-12-02T14:08:27.646Z,12.44
2018-12-02T14:10:56.789Z,12.40
2018-12-02T14:13:27.204Z,12.39
2018-12-02T14:16:04.606Z,12.37
2018-12-02T14:18:35.729Z,12.27
2018-12-02T14:21:04.308Z,12.18
2018-12-02T14:23:33.594Z,12.15
2018-12-02T14:26:06.403Z,12.16
2018-12-02T14:28:46.165Z,12.10
2018-12-02T14:31:15.107Z,12.11
2018-12-02T14:33:43.544Z,12.09
2018-12-02T14:36:12.064Z,12.11
2018-12-02T14:38:41.276Z,12.07
2018-12-02T14:41:10.283Z,12.08
2018-12-02T14:43:38.867Z,12.04
2018-12-02T14:46:07.371Z,12.03
2018-12-02T14:48:35.994Z,12.06
2018-12-02T14:51:04.509Z,12.05
2018-12-02T14:53:32.957Z,12.02
2018-12-02T14:56:01.383Z,12.06
2018-12-02T14:58:30.715Z,12.05
2018-12-02T15:00:59.179Z,12.02
2018-12-02T15:03:27.615Z,12.00
2018-12-02T15:05:56.082Z,11.96
2018-12-02T15:08:24.573Z,11.95
2018-12-02T15:10:53.156Z,11.99
2018-12-02T15:13:21.591Z,12.00
2018-12-02T15:15:51.093Z,12.02
2018-12-02T15:18:18.427Z,12.04
2018-12-02T15:20:46.897Z,12.09
2018-12-02T15:23:15.335Z,12.07
2018-12-02T15:25:43.777Z,12.04
2018-12-02T15:28:12.222Z,12.05
2018-12-02T15:30:40.826Z,12.04
2018-12-02T15:33:09.288Z,12.07
2018-12-02T15:35:37.858Z,12.04
2018-12-02T15:38:06.514Z,11.97
2018-12-02T15:40:34.972Z,11.94
2018-12-02T15:43:03.455Z,11.97
2018-12-02T15:45:31.935Z,11.98
2018-12-02T15:48:00.421Z,11.96
2018-12-02T15:50:28.858Z,11.96
2018-12-02T15:52:57.358Z,11.92
2018-12-02T15:55:27.304Z,11.89
2018-12-02T15:57:57.318Z,11.91
2018-12-02T16:00:29.913Z,11.89
2018-12-02T16:02:58.365Z,11.93
2018-12-02T16:05:26.866Z,11.91
2018-12-02T16:07:56.583Z,11.92
2018-12-02T16:10:25.037Z,11.91
2018-12-02T16:12:54.235Z,11.95
2018-12-02T16:15:28.440Z,11.94
2018-12-02T16:17:57.690Z,11.97
2018-12-02T16:20:57.908Z,12.01
2018-12-02T16:23:27.049Z,12.07
2018-12-02T16:25:56.834Z,12.04
2018-12-02T16:28:25.344Z,12.01
2018-12-02T16:30:55.097Z,12.00
2018-12-02T16:33:23.794Z,12.02
2018-12-02T16:35:52.248Z,12.01
2018-12-02T16:38:20.782Z,12.00
2018-12-02T16:40:49.252Z,12.02
2018-12-02T16:43:17.734Z,12.04
2018-12-02T16:45:46.197Z,12.02
2018-12-02T16:48:14.612Z,11.98
2018-12-02T16:50:45.509Z,12.04
2018-12-02T16:53:23.202Z,11.94
2018-12-02T16:55:56.776Z,12.01
2018-12-02T16:58:35.273Z,12.01
2018-12-02T17:01:11.027Z,12.07
2018-12-02T17:03:39.512Z,12.05
2018-12-02T17:06:07.933Z,11.98
2018-12-02T17:08:36.407Z,11.96
2018-12-02T17:11:04.920Z,11.95
2018-12-02T17:13:33.491Z,11.96
2018-12-02T17:16:02.093Z,11.93
2018-12-02T17:18:30.619Z,11.89
2018-12-02T17:20:59.193Z,11.94
2018-12-02T17:23:27.643Z,11.93
2018-12-02T17:28:39.193Z,11.97
2018-12-02T17:31:14.629Z,12.00
2018-12-02T17:33:44.998Z,12.03
2018-12-02T17:36:13.509Z,12.01
2018-12-02T17:38:43.624Z,12.04
2018-12-02T17:41:15.397Z,12.01
2018-12-02T17:43:44.127Z,12.03
2018-12-02T17:46:13.813Z,12.10
2018-12-02T17:48:42.349Z,12.09
2018-12-02T17:51:10.819Z,12.10
2018-12-02T17:53:43.185Z,12.09
2018-12-02T17:56:12.127Z,12.10
2018-12-02T17:58:41.269Z,12.10
2018-12-02T18:01:09.852Z,12.11
2018-12-02T18:03:38.529Z,12.10
2018-12-02T18:06:09.144Z,12.11
2018-12-02T18:08:37.646Z,12.09
2018-12-02T18:11:06.338Z,12.10
2018-12-02T18:13:34.771Z,12.10
2018-12-02T18:16:03.202Z,12.11
2018-12-02T18:18:31.629Z,12.14
2018-12-02T18:21:00.061Z,12.17
2018-12-02T18:23:28.550Z,12.15
2018-12-02T18:25:57.019Z,12.10
2018-12-02T18:28:25.419Z,12.14
2018-12-02T18:30:53.939Z,12.14
2018-12-02T18:33:22.415Z,12.16
2018-12-02T18:35:58.336Z,12.16
2018-12-02T18:38:27.987Z,12.14
2018-12-02T18:41:05.295Z,12.15
2018-12-02T18:43:33.743Z,12.13
2018-12-02T18:46:02.210Z,12.10
2018-12-02T18:48:30.768Z,12.14
2018-12-02T18:50:59.519Z,12.18
2018-12-02T18:53:27.968Z,12.16
2018-12-02T18:55:56.457Z,12.13
2018-12-02T18:58:24.959Z,12.14
2018-12-02T19:00:53.998Z,12.14
2018-12-02T19:03:23.469Z,12.11
2018-12-02T19:05:52.575Z,12.06
2018-12-02T19:08:21.036Z,12.08
2018-12-02T19:10:51.834Z,12.05
2018-12-02T19:13:20.298Z,12.03
2018-12-02T19:15:48.779Z,12.03
2018-12-02T19:18:17.239Z,12.04
2018-12-02T19:20:46.051Z,11.97
2018-12-02T19:23:18.844Z,11.82
2018-12-02T19:25:47.512Z,11.99
2018-12-02T19:28:16.201Z,11.88
2018-12-02T19:30:44.610Z,11.98
2018-12-02T19:33:15.965Z,11.95
2018-12-02T19:35:44.432Z,11.96
2018-12-02T19:38:18.514Z,11.96
2018-12-02T19:40:47.002Z,12.01
2018-12-02T19:43:15.560Z,12.07
2018-12-02T19:45:44.138Z,12.09
2018-12-02T19:48:12.615Z,12.04
2018-12-02T19:50:41.502Z,11.98
2018-12-02T19:53:09.971Z,12.00
2018-12-02T19:55:38.423Z,11.98
2018-12-02T19:58:08.912Z,12.04
2018-12-02T20:00:41.448Z,11.95
2018-12-02T20:03:12.947Z,11.93
2018-12-02T20:05:41.062Z,11.91
2018-12-02T20:08:11.129Z,11.90
2018-12-02T20:10:40.830Z,11.84
2018-12-02T20:13:11.647Z,11.83
2018-12-02T20:15:46.293Z,11.80
2018-12-02T20:18:15.178Z,11.73
2018-12-02T20:20:50.371Z,11.74
2018-12-02T20:23:25.188Z,11.72
2018-12-02T20:25:55.146Z,11.74
2018-12-02T20:28:26.619Z,11.73
2018-12-02T20:30:55.101Z,11.74
2018-12-02T20:33:23.539Z,11.71
2018-12-02T20:35:51.965Z,11.71
2018-12-02T20:38:20.962Z,11.69
2018-12-02T20:40:49.372Z,11.66
2018-12-02T20:43:18.134Z,11.66
2018-12-02T20:45:47.587Z,11.69
2018-12-02T20:48:16.178Z,11.71
2018-12-02T20:50:44.678Z,11.71
2018-12-02T20:53:16.034Z,11.70
2018-12-02T20:55:41.880Z,11.67
2018-12-02T20:58:10.363Z,11.74
2018-12-02T21:00:38.832Z,11.69
2018-12-02T21:03:18.541Z,11.62
2018-12-02T21:05:58.186Z,11.61
2018-12-02T21:08:26.613Z,11.58
2018-12-02T21:10:56.106Z,11.57
2018-12-02T21:13:24.591Z,11.57
2018-12-02T21:15:53.065Z,11.61
2018-12-02T21:18:21.617Z,11.67
2018-12-02T21:20:50.077Z,11.74
2018-12-02T21:23:19.408Z,11.80
2018-12-02T21:25:48.714Z,11.80
2018-12-02T21:28:17.991Z,11.79
2018-12-02T21:30:46.530Z,11.80
2018-12-02T21:33:14.950Z,11.83
2018-12-02T21:35:43.478Z,11.79
2018-12-02T21:38:11.964Z,11.74
2018-12-02T21:40:40.394Z,11.75
2018-12-02T21:43:08.823Z,11.86
2018-12-02T21:45:37.345Z,11.87
2018-12-02T21:48:08.843Z,11.83
2018-12-02T21:50:37.269Z,11.79
2018-12-02T21:53:05.937Z,11.76
2018-12-02T21:55:34.412Z,11.74
2018-12-02T21:58:02.862Z,11.70
2018-12-02T22:00:36.629Z,11.67
2018-12-02T22:03:05.425Z,11.66
2018-12-02T22:05:33.867Z,11.65
2018-12-02T22:08:02.332Z,11.63
2018-12-02T22:10:32.794Z,11.61
2018-12-02T22:13:01.236Z,11.63
2018-12-02T22:15:29.697Z,11.64
2018-12-02T22:17:58.085Z,11.64
2018-12-02T22:20:27.157Z,11.63
2018-12-02T22:22:56.132Z,11.64
2018-12-02T22:25:25.368Z,11.64
2018-12-02T22:27:56.035Z,11.64
2018-12-02T22:30:25.435Z,11.65
2018-12-02T22:32:54.073Z,11.68
2018-12-02T22:35:22.766Z,11.68
2018-12-02T22:37:51.174Z,11.67
2018-12-02T22:40:28.016Z,11.66
2018-12-02T22:42:56.540Z,11.67
2018-12-02T22:45:29.096Z,11.77
2018-12-02T22:47:57.652Z,11.81
2018-12-02T22:50:28.438Z,11.85
2018-12-02T22:52:58.286Z,11.84
2018-12-02T22:55:26.719Z,11.83
2018-12-02T22:57:55.224Z,11.88
2018-12-02T23:00:34.932Z,11.91
2018-12-02T23:03:12.800Z,11.92
2018-12-02T23:05:42.687Z,11.94
2018-12-02T23:08:11.521Z,11.95
2018-12-02T23:10:40.188Z,11.99
2018-12-02T23:13:10.063Z,12.02
2018-12-02T23:15:40.490Z,12.08
2018-12-02T23:18:10.302Z,12.07
2018-12-02T23:20:38.771Z,12.10
2018-12-02T23:23:07.831Z,12.06
2018-12-02T23:25:37.153Z,12.04
2018-12-02T23:28:05.945Z,12.05
2018-12-02T23:30:34.425Z,12.05
2018-12-02T23:33:02.895Z,12.02
2018-12-02T23:35:31.968Z,11.98
2018-12-02T23:38:00.452Z,11.97
2018-12-02T23:40:28.912Z,11.99
2018-12-02T23:42:57.323Z,12.08
2018-12-02T23:45:25.795Z,12.05
2018-12-02T23:47:54.285Z,12.04
2018-12-02T23:50:23.811Z,12.05
2018-12-02T23:52:52.318Z,11.99
2018-12-02T23:55:21.544Z,11.98
2018-12-02T23:57:50.015Z,11.94
